GMTA

Cherif Al Idrissi Airport

Al Hoceima, Morocco
METAR GMTA 192000Z 10004KT CAVOK 26/16 Q1016 NOSIG
Observed Flight Rules
Jun-19 @ 20:00 UTC (19 minutes ago) Visual Flight Rules
Wind Visibility Clouds
100° at 4 knots 10,000+ meters
  • Clear skies
Temperatures Readings
Current 26°C / 79°F
Dewpoint 16°C / 61°F
Humidity 54%
Altimeter 30" Hg
Pressure 1016 hPa
Elevation 14
METAR GMTA 192000Z 10004KT CAVOK 26/16 Q1016 NOSIG
Observed Flight Rules
Jun-19 @ 20:00 UTC
(19 minutes ago)
VFR
Wind Visibility
100° at 4 knots 10,000+ meters
Clouds
  • Clear skies
Temperature Dewpoint
26°C / 79°F 16°C / 61°F
Humidity Altimeter Pressure
54% 30" Hg 1016 hPa